IBE07HH LEMD-LOWW
Flight info
| Callsign | IBE07HH |
|---|---|
| Flight time | N/A |
| Altitude | 36000 |
| Route | PINAR N870 BCN DCT SALON M985 LUMAS DCT UNANA DCT STP DCT RAPED DCT PIGOS DCT EKSID DCT NOSTA DCT NOPMU DCT ARALD DCT ABTAN ABTAN2W |
| Aircraft | A319/M-SDE3FGHIRWY/LB1 |
Departure
| Time | 2026-04-30 22:10 |
|---|---|
| Airport | Adolfo Suárez Madrid–Barajas Airport (LEMD) |
Arrival
| Time | N/A |
|---|---|
| Airport | Vienna International Airport (LOWW) |
| Time | Latitude | Longitude | Altitude | Speed | Heading |
|---|---|---|---|---|---|
| 2026-04-30 21:33 | 40.49483 | -3.59184 | 2022 ft | 0 kts | 89° |
| 2026-04-30 21:54 | 40.49483 | -3.59194 | 2036 ft | 4 kts | 89° |
| 2026-04-30 21:54 | 40.49483 | -3.59229 | 2028 ft | 3 kts | 89° |
| 2026-04-30 21:54 | 40.49482 | -3.59255 | 2029 ft | 4 kts | 56° |
| 2026-04-30 21:54 | 40.49464 | -3.59269 | 2032 ft | 3 kts | 359° |
| 2026-04-30 21:55 | 40.49452 | -3.59268 | 2027 ft | 0 kts | 359° |
| 2026-04-30 21:58 | 40.49456 | -3.59268 | 2027 ft | 1 kts | 359° |
| 2026-04-30 21:58 | 40.49476 | -3.59269 | 2027 ft | 5 kts | 0° |
| 2026-04-30 21:58 | 40.49515 | -3.59269 | 2033 ft | 7 kts | 0° |
| 2026-04-30 21:58 | 40.49573 | -3.59269 | 2022 ft | 9 kts | 359° |
| 2026-04-30 21:59 | 40.49635 | -3.59270 | 2022 ft | 9 kts | 359° |
| 2026-04-30 21:59 | 40.49701 | -3.59271 | 2022 ft | 10 kts | 359° |
| 2026-04-30 21:59 | 40.49743 | -3.59237 | 2022 ft | 7 kts | 77° |
| 2026-04-30 22:00 | 40.49744 | -3.59098 | 2022 ft | 8 kts | 90° |
| 2026-04-30 22:00 | 40.49745 | -3.58937 | 2028 ft | 10 kts | 89° |
| 2026-04-30 22:00 | 40.49745 | -3.58852 | 2022 ft | 7 kts | 90° |
| 2026-04-30 22:01 | 40.49735 | -3.58793 | 2024 ft | 7 kts | 106° |
| 2026-04-30 22:01 | 40.49732 | -3.58732 | 2022 ft | 7 kts | 91° |
| 2026-04-30 22:01 | 40.49728 | -3.58668 | 2026 ft | 7 kts | 109° |
| 2026-04-30 22:01 | 40.49688 | -3.58637 | 2022 ft | 7 kts | 172° |
| 2026-04-30 22:02 | 40.49632 | -3.58636 | 2022 ft | 9 kts | 180° |
| 2026-04-30 22:02 | 40.49565 | -3.58636 | 2022 ft | 11 kts | 180° |
| 2026-04-30 22:02 | 40.49484 | -3.58635 | 2022 ft | 12 kts | 179° |
| 2026-04-30 22:02 | 40.49399 | -3.58635 | 2022 ft | 12 kts | 180° |
| 2026-04-30 22:03 | 40.49311 | -3.58635 | 2030 ft | 12 kts | 179° |
| 2026-04-30 22:03 | 40.49246 | -3.58593 | 2022 ft | 11 kts | 114° |
| 2026-04-30 22:03 | 40.49241 | -3.58475 | 2016 ft | 15 kts | 90° |
| 2026-04-30 22:03 | 40.49242 | -3.58335 | 2011 ft | 16 kts | 89° |
| 2026-04-30 22:04 | 40.49242 | -3.58195 | 2007 ft | 14 kts | 89° |
| 2026-04-30 22:04 | 40.49243 | -3.58089 | 2004 ft | 11 kts | 89° |
| 2026-04-30 22:04 | 40.49244 | -3.57863 | 1996 ft | 13 kts | 89° |
| 2026-04-30 22:05 | 40.49244 | -3.57761 | 1992 ft | 9 kts | 90° |
| 2026-04-30 22:05 | 40.49244 | -3.57679 | 1989 ft | 6 kts | 89° |
| 2026-04-30 22:05 | 40.49252 | -3.57611 | 1987 ft | 3 kts | 72° |
| 2026-04-30 22:07 | 40.49252 | -3.57609 | 1987 ft | 1 kts | 72° |
| 2026-04-30 22:07 | 40.49259 | -3.57585 | 1987 ft | 5 kts | 68° |
| 2026-04-30 22:08 | 40.49286 | -3.57531 | 1985 ft | 9 kts | 50° |
| 2026-04-30 22:08 | 40.49344 | -3.57472 | 1986 ft | 12 kts | 26° |
| 2026-04-30 22:08 | 40.49428 | -3.57452 | 1983 ft | 9 kts | 360° |
| 2026-04-30 22:08 | 40.49430 | -3.57452 | 1983 ft | 0 kts | 360° |
| 2026-04-30 22:09 | 40.49559 | -3.57453 | 1985 ft | 54 kts | 359° |
| 2026-04-30 22:09 | 40.50186 | -3.57457 | 1988 ft | 123 kts | 359° |
| 2026-04-30 22:09 | 40.51232 | -3.57469 | 2008 ft | 174 kts | 359° |
| 2026-04-30 22:09 | 40.52471 | -3.57504 | 2557 ft | 179 kts | 357° |
| 2026-04-30 22:10 | 40.53710 | -3.57534 | 3314 ft | 178 kts | 358° |
| 2026-04-30 22:10 | 40.54971 | -3.57511 | 3886 ft | 189 kts | 3° |
| 2026-04-30 22:10 | 40.56343 | -3.57183 | 4214 ft | 212 kts | 15° |
| 2026-04-30 22:10 | 40.57820 | -3.56597 | 4611 ft | 231 kts | 18° |
| 2026-04-30 22:11 | 40.61140 | -3.55194 | 5996 ft | 252 kts | 17° |
| 2026-04-30 22:11 | 40.62821 | -3.54546 | 7013 ft | 252 kts | 16° |
| 2026-04-30 22:11 | 40.64550 | -3.54147 | 7852 ft | 255 kts | 2° |
| 2026-04-30 22:12 | 40.66334 | -3.54010 | 8733 ft | 257 kts | 3° |
| 2026-04-30 22:12 | 40.68132 | -3.53833 | 9600 ft | 261 kts | 8° |
| 2026-04-30 22:12 | 40.69868 | -3.53091 | 10407 ft | 266 kts | 28° |
| 2026-04-30 22:12 | 40.71350 | -3.51621 | 11159 ft | 270 kts | 47° |
| 2026-04-30 22:13 | 40.72479 | -3.49619 | 11905 ft | 274 kts | 56° |
| 2026-04-30 22:13 | 40.73569 | -3.47502 | 12499 ft | 288 kts | 56° |
| 2026-04-30 22:13 | 40.74741 | -3.45231 | 12803 ft | 311 kts | 56° |
| 2026-04-30 22:13 | 40.76007 | -3.42782 | 13069 ft | 335 kts | 56° |
| 2026-04-30 22:14 | 40.77366 | -3.40160 | 13330 ft | 357 kts | 56° |
| 2026-04-30 22:14 | 40.78792 | -3.37414 | 13899 ft | 367 kts | 56° |
| 2026-04-30 22:14 | 40.80250 | -3.34603 | 14530 ft | 372 kts | 56° |
| 2026-04-30 22:14 | 40.81717 | -3.31766 | 15197 ft | 376 kts | 56° |
| 2026-04-30 22:15 | 40.83199 | -3.28899 | 15877 ft | 380 kts | 56° |
| 2026-04-30 22:15 | 40.84651 | -3.25969 | 16550 ft | 383 kts | 61° |
| 2026-04-30 22:15 | 40.85743 | -3.22752 | 17215 ft | 385 kts | 72° |
| 2026-04-30 22:15 | 40.86455 | -3.19331 | 17895 ft | 388 kts | 77° |
| 2026-04-30 22:16 | 40.87134 | -3.15860 | 18541 ft | 392 kts | 77° |
| 2026-04-30 22:16 | 40.87822 | -3.12351 | 19111 ft | 395 kts | 77° |
| 2026-04-30 22:17 | 40.89920 | -3.01705 | 20923 ft | 403 kts | 77° |
| 2026-04-30 22:17 | 40.90630 | -2.98101 | 21521 ft | 406 kts | 77° |
| 2026-04-30 22:17 | 40.92051 | -2.90832 | 22727 ft | 411 kts | 77° |
| 2026-04-30 22:18 | 40.92765 | -2.87156 | 23311 ft | 413 kts | 77° |
| 2026-04-30 22:18 | 40.94202 | -2.79747 | 24284 ft | 418 kts | 77° |
| 2026-04-30 22:19 | 40.95651 | -2.72272 | 25136 ft | 424 kts | 77° |
| 2026-04-30 22:19 | 40.96385 | -2.68480 | 25552 ft | 427 kts | 77° |
| 2026-04-30 22:19 | 40.97862 | -2.60798 | 26104 ft | 432 kts | 77° |
| 2026-04-30 22:20 | 40.98604 | -2.56933 | 26139 ft | 433 kts | 77° |
| 2026-04-30 22:20 | 41.00086 | -2.49222 | 26138 ft | 432 kts | 77° |
| 2026-04-30 22:20 | 41.00825 | -2.45350 | 26139 ft | 432 kts | 78° |
| 2026-04-30 22:21 | 41.01557 | -2.41482 | 26138 ft | 432 kts | 78° |
| 2026-04-30 22:21 | 41.02288 | -2.37609 | 26138 ft | 432 kts | 78° |
| 2026-04-30 22:21 | 41.03008 | -2.33795 | 26138 ft | 432 kts | 78° |
| 2026-04-30 22:21 | 41.03742 | -2.29918 | 26138 ft | 432 kts | 78° |
| 2026-04-30 22:22 | 41.04475 | -2.26057 | 26137 ft | 433 kts | 77° |
| 2026-04-30 22:22 | 41.05208 | -2.22185 | 26140 ft | 433 kts | 77° |
| 2026-04-30 22:22 | 41.05940 | -2.18300 | 26142 ft | 433 kts | 77° |
| 2026-04-30 22:22 | 41.06669 | -2.14431 | 26142 ft | 433 kts | 77° |
| 2026-04-30 22:23 | 41.07154 | -2.11853 | 26139 ft | 433 kts | 77° |
| 2026-04-30 22:23 | 41.08122 | -2.06708 | 26139 ft | 433 kts | 77° |
| 2026-04-30 22:23 | 41.08848 | -2.02829 | 26138 ft | 433 kts | 78° |
| 2026-04-30 22:23 | 41.09574 | -1.98927 | 26414 ft | 436 kts | 78° |
| 2026-04-30 22:24 | 41.10056 | -1.96328 | 26715 ft | 438 kts | 78° |
| 2026-04-30 22:24 | 41.10784 | -1.92399 | 27126 ft | 440 kts | 78° |
| 2026-04-30 22:24 | 41.11518 | -1.88437 | 27507 ft | 444 kts | 78° |
| 2026-04-30 22:24 | 41.12256 | -1.84440 | 27863 ft | 448 kts | 78° |
| 2026-04-30 22:25 | 41.12996 | -1.80405 | 28241 ft | 451 kts | 78° |
| 2026-04-30 22:25 | 41.13742 | -1.76336 | 28625 ft | 454 kts | 78° |
| 2026-04-30 22:25 | 41.14491 | -1.72251 | 29002 ft | 457 kts | 78° |
| 2026-04-30 22:25 | 41.15250 | -1.68122 | 29373 ft | 460 kts | 78° |
| 2026-04-30 22:26 | 41.16766 | -1.59854 | 30087 ft | 466 kts | 78° |
| 2026-04-30 22:26 | 41.17531 | -1.55649 | 30390 ft | 469 kts | 78° |
| 2026-04-30 22:26 | 41.18296 | -1.51419 | 30685 ft | 471 kts | 78° |
| 2026-04-30 22:27 | 41.19064 | -1.47176 | 30961 ft | 473 kts | 78° |
| 2026-04-30 22:27 | 41.19834 | -1.42922 | 31260 ft | 475 kts | 78° |
| 2026-04-30 22:27 | 41.21380 | -1.34331 | 31890 ft | 478 kts | 78° |
| 2026-04-30 22:28 | 41.22905 | -1.25816 | 32770 ft | 474 kts | 78° |
| 2026-04-30 22:28 | 41.23666 | -1.21555 | 33214 ft | 473 kts | 78° |
| 2026-04-30 22:29 | 41.25947 | -1.08814 | 34394 ft | 470 kts | 78° |
| 2026-04-30 22:29 | 41.26701 | -1.04576 | 34737 ft | 470 kts | 78° |
| 2026-04-30 22:30 | 41.29670 | -0.87762 | 36046 ft | 467 kts | 78° |
| 2026-04-30 22:31 | 41.31842 | -0.75225 | 36107 ft | 461 kts | 78° |
| 2026-04-30 22:32 | 41.35283 | -0.54394 | 36117 ft | 459 kts | 86° |
| 2026-04-30 22:33 | 41.35243 | -0.33190 | 36124 ft | 458 kts | 92° |
| 2026-04-30 22:35 | 41.35055 | -0.11987 | 36136 ft | 458 kts | 92° |
| 2026-04-30 22:36 | 41.34832 | 0.09210 | 36126 ft | 459 kts | 92° |
| 2026-04-30 22:37 | 41.34615 | 0.26236 | 36111 ft | 462 kts | 93° |
| 2026-04-30 22:38 | 41.34377 | 0.43442 | 36117 ft | 466 kts | 93° |
| 2026-04-30 22:39 | 41.34180 | 0.56384 | 36133 ft | 467 kts | 93° |
| 2026-04-30 22:40 | 41.33747 | 0.82367 | 36151 ft | 469 kts | 93° |
| 2026-04-30 22:41 | 41.33328 | 1.04054 | 36166 ft | 470 kts | 94° |
| 2026-04-30 22:43 | 41.32792 | 1.30194 | 36170 ft | 471 kts | 93° |
| 2026-04-30 22:44 | 41.32381 | 1.47586 | 36174 ft | 472 kts | 94° |
| 2026-04-30 22:45 | 41.31741 | 1.73810 | 36172 ft | 472 kts | 94° |
| 2026-04-30 22:47 | 41.31030 | 1.99979 | 36169 ft | 472 kts | 94° |
| 2026-04-30 22:48 | 41.31896 | 2.17399 | 36176 ft | 474 kts | 77° |
| 2026-04-30 22:49 | 41.36422 | 2.42944 | 36191 ft | 471 kts | 77° |
| 2026-04-30 22:51 | 41.40847 | 2.68347 | 36182 ft | 469 kts | 77° |
| 2026-04-30 22:52 | 41.43057 | 2.81112 | 36174 ft | 469 kts | 77° |
| 2026-04-30 22:53 | 41.45957 | 2.98044 | 36180 ft | 469 kts | 77° |
| 2026-04-30 22:53 | 41.48120 | 3.10808 | 36183 ft | 469 kts | 77° |
| 2026-04-30 22:55 | 41.51701 | 3.32060 | 36199 ft | 470 kts | 77° |
| 2026-04-30 22:56 | 41.54526 | 3.49095 | 36190 ft | 471 kts | 77° |
| 2026-04-30 22:57 | 41.57800 | 3.69020 | 36180 ft | 470 kts | 77° |
| 2026-04-30 22:58 | 41.60579 | 3.86143 | 36180 ft | 471 kts | 77° |
| 2026-04-30 22:59 | 41.64726 | 4.11843 | 36176 ft | 472 kts | 77° |